createdAt,value
2022-09-24T00:04:48.228Z,13.98
2022-09-24T00:07:14.193Z,14.04
2022-09-24T00:09:40.152Z,13.79
2022-09-24T00:12:07.045Z,13.63
2022-09-24T00:14:33.008Z,13.73
2022-09-24T00:16:59.001Z,13.78
2022-09-24T00:19:24.932Z,13.82
2022-09-24T00:21:50.898Z,13.77
2022-09-24T00:24:16.853Z,13.72
2022-09-24T00:26:42.829Z,13.70
2022-09-24T00:29:09.683Z,13.54
2022-09-24T00:31:36.492Z,13.36
2022-09-24T00:34:02.554Z,13.34
2022-09-24T00:36:28.537Z,13.21
2022-09-24T00:38:54.489Z,13.36
2022-09-24T00:41:20.486Z,13.39
2022-09-24T00:43:46.516Z,13.34
2022-09-24T00:46:12.502Z,13.34
2022-09-24T00:48:39.349Z,13.44
2022-09-24T00:51:05.319Z,13.40
2022-09-24T00:53:31.276Z,13.48
2022-09-24T00:55:58.189Z,13.51
2022-09-24T00:58:24.134Z,13.51
2022-09-24T01:00:50.189Z,13.41
2022-09-24T01:03:17.075Z,13.40
2022-09-24T01:05:43.427Z,13.40
2022-09-24T01:08:09.351Z,13.20
2022-09-24T01:10:35.295Z,13.14
2022-09-24T01:13:01.496Z,13.21
2022-09-24T01:15:27.523Z,13.22
2022-09-24T01:17:53.507Z,13.24
2022-09-24T01:20:19.492Z,13.37
2022-09-24T01:22:46.419Z,13.11
2022-09-24T01:25:12.375Z,13.23
2022-09-24T01:27:38.550Z,13.25
2022-09-24T01:30:05.354Z,13.11
2022-09-24T01:32:32.626Z,13.09
2022-09-24T01:34:58.716Z,13.03
2022-09-24T01:37:26.965Z,13.07
2022-09-24T01:39:52.957Z,13.00
2022-09-24T01:42:19.622Z,13.06
2022-09-24T01:44:46.357Z,13.14
2022-09-24T01:47:12.327Z,13.07
2022-09-24T01:49:38.290Z,13.09
2022-09-24T01:52:05.214Z,13.02
2022-09-24T01:54:31.156Z,13.02
2022-09-24T01:56:57.113Z,12.84
2022-09-24T01:59:23.085Z,12.90
2022-09-24T02:01:49.651Z,12.98
2022-09-24T02:04:15.680Z,12.93
2022-09-24T02:06:41.628Z,12.65
2022-09-24T02:09:08.250Z,12.78
2022-09-24T02:11:34.220Z,12.94
2022-09-24T02:14:00.152Z,12.98
2022-09-24T02:16:26.494Z,12.90
2022-09-24T02:18:52.590Z,12.97
2022-09-24T02:21:18.543Z,12.91
2022-09-24T02:23:44.480Z,12.77
2022-09-24T02:26:10.438Z,12.73
2022-09-24T02:28:36.422Z,12.84
2022-09-24T02:31:03.359Z,12.81
2022-09-24T02:33:29.348Z,12.75
2022-09-24T02:35:55.277Z,12.72
2022-09-24T02:38:22.207Z,12.71
2022-09-24T02:40:48.226Z,12.74
2022-09-24T02:43:14.622Z,12.72
2022-09-24T02:45:42.150Z,12.81
2022-09-24T02:48:08.483Z,12.86
2022-09-24T02:50:34.565Z,12.78
2022-09-24T02:53:02.103Z,12.71
2022-09-24T02:55:28.221Z,12.76
2022-09-24T04:57:17.401Z,12.27
2022-09-24T04:59:43.958Z,12.35
2022-09-24T05:02:10.104Z,12.46
2022-09-24T05:04:37.087Z,12.59
2022-09-24T05:07:03.055Z,12.55
2022-09-24T05:09:28.996Z,12.50
2022-09-24T05:11:54.988Z,12.44
2022-09-24T05:14:20.940Z,12.56
2022-09-24T05:16:47.850Z,12.55
2022-09-24T05:19:13.803Z,12.84
2022-09-24T05:21:39.751Z,12.93
2022-09-24T05:24:05.714Z,12.90
2022-09-24T05:26:31.980Z,12.98
2022-09-24T05:28:57.930Z,13.00
2022-09-24T05:31:23.933Z,12.69
2022-09-24T05:33:50.915Z,12.97
2022-09-24T05:36:17.135Z,13.13
2022-09-24T05:38:43.091Z,13.22
2022-09-24T05:41:09.904Z,13.20
2022-09-24T05:43:35.857Z,13.32
2022-09-24T05:46:01.829Z,13.44
2022-09-24T05:48:27.824Z,13.56
2022-09-24T05:50:53.747Z,13.61
2022-09-24T05:53:20.606Z,13.71
2022-09-24T05:55:46.538Z,13.68
2022-09-24T05:58:12.486Z,13.80
2022-09-24T06:00:38.448Z,13.81
2022-09-24T06:03:04.511Z,13.87
2022-09-24T06:05:30.597Z,13.91
2022-09-24T06:07:56.534Z,13.96
2022-09-24T06:10:22.597Z,14.06
2022-09-24T06:12:48.561Z,14.14
2022-09-24T06:15:15.378Z,14.27
2022-09-24T06:17:41.347Z,14.24
2022-09-24T06:20:07.290Z,14.28
2022-09-24T06:22:33.259Z,14.37
2022-09-24T06:27:43.555Z,14.61
2022-09-24T06:30:09.561Z,14.79
2022-09-24T06:32:35.497Z,14.92
2022-09-24T06:35:01.456Z,15.03
2022-09-24T06:37:27.412Z,15.10
2022-09-24T06:39:53.360Z,15.17
2022-09-24T06:42:20.227Z,15.48
2022-09-24T06:44:46.182Z,15.65
2022-09-24T06:47:12.188Z,15.81
2022-09-24T06:49:39.011Z,15.95
2022-09-24T06:52:04.989Z,16.09
2022-09-24T06:54:30.927Z,15.91
2022-09-24T06:56:56.890Z,15.86
2022-09-24T06:59:23.720Z,15.89
2022-09-24T07:01:49.762Z,16.13
2022-09-24T07:04:16.159Z,16.36
2022-09-24T07:06:42.275Z,16.55
2022-09-24T07:09:08.285Z,16.67
2022-09-24T07:11:34.270Z,16.61
2022-09-24T07:14:00.819Z,16.79
2022-09-24T07:16:26.840Z,16.61
2022-09-24T07:18:53.354Z,16.81
2022-09-24T07:21:20.239Z,17.10
2022-09-24T07:23:46.196Z,17.02
2022-09-24T07:26:12.145Z,16.78
2022-09-24T07:28:38.821Z,16.90
2022-09-24T07:31:04.902Z,17.01
2022-09-24T07:33:30.908Z,17.28
2022-09-24T07:35:57.645Z,17.54
2022-09-24T07:38:23.951Z,17.76
2022-09-24T07:40:51.697Z,17.87
2022-09-24T07:43:17.952Z,17.97
2022-09-24T07:45:44.216Z,18.06
2022-09-24T07:48:10.526Z,17.97
2022-09-24T09:58:16.470Z,22.41
2022-09-24T10:00:42.455Z,22.94
2022-09-24T10:03:08.536Z,23.20
2022-09-24T10:05:34.618Z,22.42
2022-09-24T10:08:00.621Z,21.77
2022-09-24T10:10:26.579Z,21.89
2022-09-24T10:12:52.547Z,22.35
2022-09-24T10:15:18.512Z,22.93
2022-09-24T10:17:44.677Z,23.55
2022-09-24T10:20:10.634Z,24.10
2022-09-24T10:22:36.568Z,23.97
2022-09-24T10:25:02.533Z,23.75
2022-09-24T10:27:28.511Z,24.18
2022-09-24T10:29:54.487Z,24.58
2022-09-24T10:32:20.475Z,25.16
2022-09-24T10:34:46.437Z,24.89
2022-09-24T10:37:12.380Z,24.42
2022-09-24T10:39:39.227Z,24.55
2022-09-24T10:42:05.203Z,25.16
2022-09-24T10:44:31.142Z,24.93
2022-09-24T10:46:57.219Z,24.99
2022-09-24T10:49:23.221Z,24.53
2022-09-24T10:51:49.234Z,23.82
2022-09-24T10:54:15.894Z,24.51
2022-09-24T10:56:46.123Z,24.44
2022-09-24T10:59:12.661Z,24.86
2022-09-24T11:01:38.687Z,24.77
2022-09-24T11:04:04.739Z,25.26
2022-09-24T11:06:30.732Z,25.08
2022-09-24T11:08:56.689Z,25.21
2022-09-24T11:11:23.352Z,25.48
2022-09-24T11:13:51.547Z,25.93
2022-09-24T11:16:17.727Z,24.94
2022-09-24T11:18:43.692Z,24.26
2022-09-24T11:21:09.654Z,24.45
2022-09-24T11:23:36.402Z,24.27
2022-09-24T11:26:02.364Z,24.81
2022-09-24T11:28:28.316Z,24.56
2022-09-24T11:30:55.071Z,24.54
2022-09-24T11:33:23.190Z,24.42
2022-09-24T11:35:49.441Z,24.97
2022-09-24T11:38:16.187Z,24.29
2022-09-24T11:40:42.256Z,24.37
2022-09-24T11:43:08.271Z,24.74
2022-09-24T11:45:34.919Z,24.26
2022-09-24T11:48:00.907Z,24.11
2022-09-24T11:50:26.879Z,24.53
2022-09-24T11:52:53.034Z,24.44
2022-09-24T11:55:19.678Z,24.22
2022-09-24T11:57:45.673Z,24.46
2022-09-24T12:00:11.706Z,23.62
2022-09-24T12:02:37.827Z,23.20
2022-09-24T12:05:03.816Z,24.02
2022-09-24T12:07:29.781Z,23.28
2022-09-24T12:09:56.509Z,23.96
2022-09-24T12:12:22.970Z,24.76
2022-09-24T12:14:48.938Z,24.37
2022-09-24T12:17:14.883Z,24.86
2022-09-24T12:19:41.776Z,24.59
2022-09-24T12:22:07.725Z,24.51
2022-09-24T12:24:33.685Z,24.72
2022-09-24T12:26:59.625Z,24.52
2022-09-24T12:29:26.077Z,25.07
2022-09-24T12:31:53.540Z,25.91
2022-09-24T12:34:20.269Z,26.19
2022-09-24T12:36:48.024Z,25.36
2022-09-24T12:39:14.334Z,25.03
2022-09-24T12:41:40.623Z,24.63
2022-09-24T12:44:06.907Z,24.20
2022-09-24T12:46:33.288Z,24.50
2022-09-24T12:48:59.431Z,24.97
2022-09-24T14:55:32.423Z,24.44
2022-09-24T14:57:58.383Z,24.36
2022-09-24T15:00:24.360Z,24.10
2022-09-24T15:02:50.999Z,24.40
2022-09-24T15:05:16.990Z,24.43
2022-09-24T15:07:42.944Z,24.34
2022-09-24T15:10:08.911Z,24.50
2022-09-24T15:12:34.881Z,24.58
2022-09-24T15:15:01.651Z,24.36
2022-09-24T15:17:27.664Z,24.54
2022-09-24T15:19:54.286Z,24.59
2022-09-24T15:22:20.253Z,24.59
2022-09-24T15:24:46.420Z,24.71
2022-09-24T15:27:13.184Z,24.77
2022-09-24T15:29:39.135Z,24.76
2022-09-24T15:32:05.071Z,24.78
2022-09-24T15:34:31.042Z,24.74
2022-09-24T15:36:57.021Z,24.79
2022-09-24T15:39:23.001Z,24.72
2022-09-24T15:41:48.984Z,24.70
2022-09-24T15:44:14.911Z,24.69
2022-09-24T15:46:40.964Z,24.75
2022-09-24T15:49:06.992Z,24.68
2022-09-24T15:51:33.007Z,24.60
2022-09-24T15:53:58.940Z,24.48
2022-09-24T15:56:28.017Z,24.43
2022-09-24T15:58:54.938Z,24.33
2022-09-24T16:01:20.987Z,24.14
2022-09-24T16:03:47.049Z,24.14
2022-09-24T16:06:12.992Z,24.14
2022-09-24T16:08:38.959Z,23.86
2022-09-24T16:11:08.857Z,23.91
2022-09-24T16:13:35.199Z,23.94
2022-09-24T16:16:05.248Z,23.93
2022-09-24T16:18:32.547Z,23.79
2022-09-24T16:20:58.534Z,23.84
2022-09-24T16:23:24.544Z,23.80
2022-09-24T16:25:50.529Z,23.89
2022-09-24T16:28:17.246Z,23.87
2022-09-24T16:30:43.245Z,23.67
2022-09-24T16:33:09.268Z,23.69
2022-09-24T16:35:35.826Z,23.64
2022-09-24T16:38:01.797Z,23.58
2022-09-24T16:40:27.833Z,23.55
2022-09-24T16:42:53.867Z,23.45
2022-09-24T16:45:20.737Z,23.36
2022-09-24T16:47:46.729Z,23.39
2022-09-24T16:50:13.316Z,23.36
2022-09-24T16:52:39.296Z,22.99
2022-09-24T16:55:05.278Z,22.66
2022-09-24T16:57:32.025Z,22.85
2022-09-24T16:59:58.132Z,22.94
2022-09-24T17:02:24.190Z,22.81
2022-09-24T17:04:50.382Z,22.73
2022-09-24T17:07:16.333Z,22.73
2022-09-24T17:09:42.286Z,22.51
2022-09-24T17:12:08.266Z,22.56
2022-09-24T17:14:35.025Z,22.62
2022-09-24T17:17:01.005Z,22.50
2022-09-24T17:19:26.946Z,22.35
2022-09-24T17:21:53.315Z,22.30
2022-09-24T17:24:22.002Z,22.28
2022-09-24T17:26:48.338Z,22.11
2022-09-24T17:29:14.277Z,22.09
2022-09-24T17:31:42.063Z,21.86
2022-09-24T17:34:08.937Z,21.93
2022-09-24T17:36:35.172Z,21.92
2022-09-24T19:56:36.505Z,18.84
2022-09-24T19:59:03.016Z,18.85
2022-09-24T20:01:29.040Z,18.94
2022-09-24T20:03:55.091Z,18.85
2022-09-24T20:06:21.048Z,18.82
2022-09-24T20:08:47.001Z,18.85
2022-09-24T20:11:12.973Z,18.80
2022-09-24T20:13:38.943Z,18.60
2022-09-24T20:16:05.010Z,18.64
2022-09-24T20:18:31.010Z,18.40
2022-09-24T20:20:57.639Z,18.41
2022-09-24T20:23:23.604Z,18.30
2022-09-24T20:25:49.559Z,18.44
2022-09-24T20:28:15.636Z,18.03
2022-09-24T20:30:42.653Z,18.20
2022-09-24T20:33:08.743Z,17.87
2022-09-24T20:35:34.700Z,18.03
2022-09-24T20:38:00.720Z,18.23
2022-09-24T20:40:26.715Z,18.06
2022-09-24T20:42:52.726Z,18.20
2022-09-24T20:45:19.631Z,18.20
2022-09-24T20:47:46.396Z,18.18
2022-09-24T20:50:12.354Z,18.09
2022-09-24T20:52:39.023Z,17.91
2022-09-24T20:55:04.984Z,17.73
2022-09-24T20:57:31.024Z,17.80
2022-09-24T20:59:56.989Z,17.79
2022-09-24T21:02:22.949Z,17.88
2022-09-24T21:04:49.716Z,17.86
2022-09-24T21:07:16.564Z,17.63
2022-09-24T21:09:42.532Z,17.68
2022-09-24T21:12:08.525Z,17.76
2022-09-24T21:14:34.469Z,17.74
2022-09-24T21:17:01.261Z,17.62
2022-09-24T21:19:27.222Z,17.68
2022-09-24T21:21:53.205Z,17.60
2022-09-24T21:24:19.126Z,17.63
2022-09-24T21:26:45.278Z,17.64
2022-09-24T21:29:11.426Z,17.65
2022-09-24T21:31:37.352Z,17.53
2022-09-24T21:34:03.999Z,17.49
2022-09-24T21:36:30.028Z,17.64
2022-09-24T21:38:56.876Z,17.48
2022-09-24T21:41:22.807Z,17.36
2022-09-24T21:43:48.773Z,17.12
2022-09-24T21:46:14.778Z,17.18
2022-09-24T21:48:40.858Z,17.20
2022-09-24T21:51:06.836Z,17.18
2022-09-24T21:53:32.782Z,17.09
2022-09-24T21:55:58.760Z,17.13
2022-09-24T21:58:24.693Z,16.95
2022-09-24T22:00:50.625Z,16.96
2022-09-24T22:03:19.484Z,17.01
2022-09-24T22:05:45.460Z,16.86
2022-09-24T22:08:11.397Z,16.94
2022-09-24T22:10:37.356Z,16.97
2022-09-24T22:13:03.277Z,17.04
2022-09-24T22:15:31.597Z,16.99
2022-09-24T22:17:57.770Z,17.06
2022-09-24T22:20:24.380Z,17.06
2022-09-24T22:22:50.337Z,16.94
2022-09-24T22:25:16.306Z,16.99
2022-09-24T22:27:44.174Z,16.91
2022-09-24T22:30:10.114Z,16.76
2022-09-24T22:32:36.392Z,16.63
2022-09-24T22:35:03.565Z,16.63
2022-09-24T22:37:29.844Z,16.56
2022-09-24T22:39:56.141Z,16.52
2022-09-24T22:42:22.417Z,16.64
2022-09-24T22:47:28.976Z,16.66
